Time;durP1;ratioP1;P1;durP2;ratioP2;P2;SDS_P1;SDS_P2;PMS_P1;PMS_P2;Temp;Humidity;BMP_temperature;BMP_pressure;BME280_temperature;BME280_humidity;BME280_pressure;Samples;Min_cycle;Max_cycle;Signal;HPM_P1;HPM_P2
2022/07/18 00:01:35;;;;;;;14.63;8.05;;;;;;;;;;4933670;28;20035;-67
2022/07/18 00:04:01;;;;;;;12.43;7.38;;;;;;;;;;4934174;28;20030;-66
2022/07/18 00:06:29;;;;;;;12.32;7.20;;;;;;;;;;4939200;28;20091;-66
2022/07/18 00:08:54;;;;;;;13.30;7.80;;;;;;;;;;4935077;28;20722;-66
2022/07/18 00:11:20;;;;;;;13.38;7.63;;;;;;;;;;4934383;28;20932;-67
2022/07/18 00:13:46;;;;;;;13.40;7.90;;;;;;;;;;4934834;28;20129;-67
2022/07/18 00:16:14;;;;;;;14.25;8.20;;;;;;;;;;4934099;28;20027;-67
2022/07/18 00:18:39;;;;;;;15.48;8.20;;;;;;;;;;4934227;28;20042;-67
2022/07/18 00:21:04;;;;;;;16.65;9.85;;;;;;;;;;4935212;28;20149;-66
2022/07/18 00:23:30;;;;;;;20.08;9.82;;;;;;;;;;4933742;28;20054;-66
2022/07/18 00:25:55;;;;;;;17.63;10.40;;;;;;;;;;4932614;28;20043;-67
2022/07/18 00:28:21;;;;;;;17.23;9.80;;;;;;;;;;4934666;28;20042;-66
2022/07/18 00:30:48;;;;;;;15.98;9.85;;;;;;;;;;4932534;28;20073;-66
2022/07/18 00:33:14;;;;;;;16.45;10.27;;;;;;;;;;4933527;28;20042;-67
2022/07/18 00:35:41;;;;;;;16.17;10.68;;;;;;;;;;4934491;28;20066;-67
2022/07/18 00:38:09;;;;;;;17.88;10.48;;;;;;;;;;4933896;28;20646;-67
2022/07/18 00:40:37;;;;;;;19.77;9.75;;;;;;;;;;4941661;28;20031;-66
2022/07/18 00:43:02;;;;;;;19.67;10.57;;;;;;;;;;4934722;28;20873;-67
2022/07/18 00:45:30;;;;;;;19.65;10.40;;;;;;;;;;4934307;28;20148;-68
2022/07/18 00:47:55;;;;;;;19.95;10.55;;;;;;;;;;4934675;28;21146;-67
2022/07/18 00:50:21;;;;;;;21.38;11.65;;;;;;;;;;4921029;28;20039;-67
2022/07/18 00:52:47;;;;;;;23.58;11.45;;;;;;;;;;4935562;28;20031;-67
2022/07/18 00:55:12;;;;;;;21.33;11.45;;;;;;;;;;4933119;28;20069;-66
2022/07/18 00:57:38;;;;;;;21.35;12.30;;;;;;;;;;4934346;28;20066;-68
2022/07/18 01:02:52;;;;;;;19.00;11.07;;;;;;;;;;4934087;28;20121;-66
2022/07/18 01:05:17;;;;;;;20.40;10.90;;;;;;;;;;4933297;28;20102;-65
2022/07/18 01:07:42;;;;;;;21.55;11.10;;;;;;;;;;4936032;28;20047;-66
2022/07/18 01:10:08;;;;;;;20.55;11.65;;;;;;;;;;4931750;28;20066;-66
2022/07/18 01:12:33;;;;;;;19.10;10.40;;;;;;;;;;4932716;28;20035;-66
2022/07/18 01:14:59;;;;;;;17.48;9.45;;;;;;;;;;4934984;28;20120;-66
2022/07/18 01:17:27;;;;;;;20.33;9.88;;;;;;;;;;4933284;28;20035;-66
2022/07/18 01:19:52;;;;;;;18.95;9.40;;;;;;;;;;4933953;28;20760;-67
2022/07/18 01:22:21;;;;;;;18.92;9.45;;;;;;;;;;4933181;28;20058;-67
2022/07/18 01:24:47;;;;;;;14.25;8.90;;;;;;;;;;4932811;28;20031;-67
2022/07/18 01:27:13;;;;;;;17.73;10.15;;;;;;;;;;4948787;28;20884;-67
2022/07/18 01:29:39;;;;;;;22.10;11.10;;;;;;;;;;4936059;28;20146;-67
2022/07/18 01:32:05;;;;;;;19.23;10.65;;;;;;;;;;4934511;28;20768;-68
2022/07/18 01:34:30;;;;;;;22.67;10.60;;;;;;;;;;4931643;28;20042;-67
2022/07/18 01:36:55;;;;;;;18.42;9.20;;;;;;;;;;4933633;28;20046;-67
2022/07/18 01:39:21;;;;;;;19.02;8.43;;;;;;;;;;4933289;28;20063;-67
2022/07/18 01:41:53;;;;;;;19.92;9.10;;;;;;;;;;4941209;28;21639;-66
2022/07/18 01:44:19;;;;;;;16.45;8.13;;;;;;;;;;4947678;28;20658;-69
2022/07/18 01:46:44;;;;;;;22.55;8.30;;;;;;;;;;4933144;28;20049;-67
2022/07/18 01:49:09;;;;;;;17.08;9.15;;;;;;;;;;4931858;28;20046;-66
2022/07/18 01:51:34;;;;;;;17.60;8.48;;;;;;;;;;4933370;28;20046;-68
2022/07/18 01:54:01;;;;;;;19.50;8.65;;;;;;;;;;4932858;28;20038;-66
2022/07/18 01:56:26;;;;;;;17.83;8.77;;;;;;;;;;4933711;28;20980;-66
2022/07/18 01:58:52;;;;;;;18.92;9.43;;;;;;;;;;4932724;28;20039;-67
2022/07/18 02:01:17;;;;;;;16.52;8.52;;;;;;;;;;4934190;28;20916;-66
2022/07/18 02:03:45;;;;;;;15.27;8.18;;;;;;;;;;4932608;28;20104;-66
2022/07/18 02:06:10;;;;;;;14.77;8.45;;;;;;;;;;4933101;28;20047;-68
2022/07/18 02:08:35;;;;;;;17.90;8.23;;;;;;;;;;4932810;28;20057;-68
2022/07/18 02:11:00;;;;;;;16.15;7.95;;;;;;;;;;4932575;28;20035;-67
2022/07/18 02:13:26;;;;;;;17.02;7.07;;;;;;;;;;4932479;28;20031;-68
2022/07/18 02:15:55;;;;;;;15.35;7.47;;;;;;;;;;4932535;28;20042;-65
2022/07/18 02:18:22;;;;;;;19.25;8.52;;;;;;;;;;4932583;28;20047;-68
2022/07/18 02:20:48;;;;;;;18.50;10.07;;;;;;;;;;4931588;28;20035;-66
2022/07/18 02:23:13;;;;;;;15.52;7.82;;;;;;;;;;4933085;28;20059;-67
2022/07/18 02:25:39;;;;;;;11.98;6.60;;;;;;;;;;4945753;28;20039;-66
2022/07/18 02:28:04;;;;;;;17.45;7.50;;;;;;;;;;4933406;28;20050;-66
2022/07/18 02:30:30;;;;;;;13.68;6.88;;;;;;;;;;4931987;28;20054;-66
2022/07/18 02:32:57;;;;;;;12.05;5.63;;;;;;;;;;4932647;28;20043;-66
2022/07/18 02:35:25;;;;;;;12.18;6.22;;;;;;;;;;4932275;28;20667;-65
2022/07/18 02:37:50;;;;;;;11.07;5.93;;;;;;;;;;4936045;28;20126;-66
2022/07/18 02:40:16;;;;;;;11.77;6.07;;;;;;;;;;4932717;28;20049;-67
2022/07/18 02:42:41;;;;;;;13.73;6.88;;;;;;;;;;4932533;28;22601;-67
2022/07/18 02:45:09;;;;;;;16.77;6.75;;;;;;;;;;4940594;28;20043;-66
2022/07/18 02:47:34;;;;;;;15.48;7.03;;;;;;;;;;4933997;28;20041;-67
2022/07/18 02:50:03;;;;;;;20.75;8.32;;;;;;;;;;4942632;28;20038;-67
2022/07/18 02:52:28;;;;;;;17.77;8.18;;;;;;;;;;4935718;28;20078;-67
2022/07/18 02:54:53;;;;;;;22.20;7.82;;;;;;;;;;4932892;28;20039;-66
2022/07/18 02:57:19;;;;;;;24.08;10.05;;;;;;;;;;4950705;28;21067;-66
2022/07/18 02:59:45;;;;;;;21.13;9.77;;;;;;;;;;4933391;28;20134;-68
2022/07/18 03:02:10;;;;;;;19.00;9.43;;;;;;;;;;4936330;28;20039;-66
2022/07/18 03:04:35;;;;;;;19.73;9.30;;;;;;;;;;4934701;28;20073;-66
2022/07/18 03:07:01;;;;;;;15.68;7.95;;;;;;;;;;4949537;28;20950;-66
2022/07/18 03:09:27;;;;;;;15.18;8.20;;;;;;;;;;4935715;28;20066;-66
2022/07/18 03:11:53;;;;;;;17.65;9.20;;;;;;;;;;4934245;28;20867;-66
2022/07/18 03:14:18;;;;;;;18.73;10.90;;;;;;;;;;4935542;28;20074;-67
2022/07/18 03:16:46;;;;;;;21.60;10.23;;;;;;;;;;4950066;28;20076;-66
2022/07/18 03:19:11;;;;;;;18.88;9.60;;;;;;;;;;4933952;28;20039;-66
2022/07/18 03:21:39;;;;;;;16.05;8.10;;;;;;;;;;4949479;28;20081;-66
2022/07/18 03:24:04;;;;;;;13.05;7.55;;;;;;;;;;4935619;28;20049;-66
2022/07/18 03:26:30;;;;;;;22.67;9.23;;;;;;;;;;4950001;28;20042;-67
2022/07/18 03:28:55;;;;;;;20.75;10.07;;;;;;;;;;4935378;28;20092;-67
2022/07/18 03:31:21;;;;;;;15.65;8.98;;;;;;;;;;4936848;28;20038;-66
2022/07/18 03:33:46;;;;;;;14.48;8.18;;;;;;;;;;4938992;28;20039;-66
2022/07/18 03:36:11;;;;;;;23.25;11.05;;;;;;;;;;4935185;28;20030;-67
2022/07/18 03:38:37;;;;;;;22.88;11.07;;;;;;;;;;4935349;28;20213;-67
2022/07/18 03:41:03;;;;;;;21.65;10.48;;;;;;;;;;4934478;28;20062;-67
2022/07/18 03:43:31;;;;;;;22.80;10.65;;;;;;;;;;4935732;28;20042;-66
2022/07/18 03:45:56;;;;;;;21.75;10.77;;;;;;;;;;4935898;28;20045;-66
2022/07/18 03:48:21;;;;;;;20.65;8.90;;;;;;;;;;4935533;28;20842;-66
2022/07/18 03:50:47;;;;;;;14.57;8.18;;;;;;;;;;4934836;28;20038;-66
2022/07/18 03:53:12;;;;;;;16.83;7.63;;;;;;;;;;4934537;28;20039;-66
2022/07/18 03:55:39;;;;;;;13.60;6.65;;;;;;;;;;4940573;28;20042;-66
2022/07/18 03:58:05;;;;;;;19.23;8.20;;;;;;;;;;4948313;28;20116;-67
2022/07/18 04:00:30;;;;;;;14.57;7.32;;;;;;;;;;4932892;28;20755;-66
2022/07/18 04:02:55;;;;;;;13.93;6.18;;;;;;;;;;4922690;28;20103;-66
2022/07/18 04:05:21;;;;;;;14.45;5.57;;;;;;;;;;4934123;28;21134;-67
2022/07/18 04:07:46;;;;;;;8.88;5.18;;;;;;;;;;4934491;28;20152;-68
2022/07/18 04:10:12;;;;;;;10.57;5.32;;;;;;;;;;4935009;28;20146;-66
2022/07/18 04:12:51;;;;;;;15.27;5.55;;;;;;;;;;4934993;28;20043;-66
2022/07/18 04:15:20;;;;;;;11.35;6.05;;;;;;;;;;4948490;28;20886;-66
2022/07/18 04:17:46;;;;;;;10.20;5.88;;;;;;;;;;4948821;28;20149;-66
2022/07/18 04:20:14;;;;;;;11.85;5.40;;;;;;;;;;4934499;28;20027;-66
2022/07/18 04:22:48;;;;;;;12.27;5.97;;;;;;;;;;4933711;28;20344;-67
2022/07/18 04:25:14;;;;;;;11.57;6.47;;;;;;;;;;4934625;28;20039;-67
2022/07/18 04:27:39;;;;;;;13.38;6.20;;;;;;;;;;4932255;28;20027;-67
2022/07/18 04:30:05;;;;;;;14.95;7.22;;;;;;;;;;4934313;28;20185;-66
2022/07/18 04:32:30;;;;;;;12.68;6.75;;;;;;;;;;4934400;28;20907;-66
2022/07/18 04:34:55;;;;;;;18.00;7.40;;;;;;;;;;4933233;28;20038;-67
2022/07/18 04:37:23;;;;;;;16.05;8.68;;;;;;;;;;4933912;28;20031;-67
2022/07/18 04:39:48;;;;;;;16.75;8.35;;;;;;;;;;4934165;28;20046;-67
2022/07/18 04:42:16;;;;;;;18.00;8.27;;;;;;;;;;4933541;28;20043;-67
2022/07/18 04:44:41;;;;;;;15.50;8.57;;;;;;;;;;4948436;28;20031;-67
2022/07/18 04:47:11;;;;;;;20.30;9.43;;;;;;;;;;4933725;28;20038;-67
2022/07/18 04:49:36;;;;;;;20.20;9.73;;;;;;;;;;4931755;28;20046;-67
2022/07/18 04:52:02;;;;;;;19.73;9.98;;;;;;;;;;4945496;28;20081;-66
2022/07/18 04:54:27;;;;;;;18.33;9.95;;;;;;;;;;4934129;28;20042;-68
2022/07/18 04:56:54;;;;;;;19.33;8.40;;;;;;;;;;4947916;28;20042;-67
2022/07/18 04:59:19;;;;;;;14.57;6.45;;;;;;;;;;4934089;28;20041;-71
2022/07/18 05:01:45;;;;;;;14.23;6.05;;;;;;;;;;4936426;28;21080;-66
2022/07/18 05:04:10;;;;;;;16.65;5.68;;;;;;;;;;4946750;28;20124;-66
2022/07/18 05:06:37;;;;;;;16.42;5.90;;;;;;;;;;4937871;28;20057;-66
2022/07/18 05:09:03;;;;;;;15.05;6.35;;;;;;;;;;4947144;28;20039;-66
2022/07/18 05:11:28;;;;;;;12.45;6.38;;;;;;;;;;4934045;28;20053;-67
2022/07/18 05:13:56;;;;;;;16.02;6.85;;;;;;;;;;4933251;28;21140;-67
2022/07/18 05:16:21;;;;;;;13.93;6.38;;;;;;;;;;4933316;28;20129;-67
2022/07/18 05:18:47;;;;;;;17.15;6.25;;;;;;;;;;4932487;28;20046;-66
2022/07/18 05:21:14;;;;;;;15.73;5.93;;;;;;;;;;4933782;28;20031;-66
2022/07/18 05:23:39;;;;;;;14.60;5.55;;;;;;;;;;4933050;28;20047;-67
2022/07/18 05:26:05;;;;;;;18.40;5.40;;;;;;;;;;4932712;28;20175;-67
2022/07/18 05:28:30;;;;;;;12.50;4.82;;;;;;;;;;4930596;28;20053;-67
2022/07/18 05:30:55;;;;;;;9.73;4.50;;;;;;;;;;4930756;28;20041;-67
2022/07/18 05:33:21;;;;;;;12.93;4.50;;;;;;;;;;4931669;28;20080;-67
2022/07/18 05:35:46;;;;;;;10.50;4.22;;;;;;;;;;4930747;28;20042;-68
2022/07/18 05:38:11;;;;;;;10.50;4.50;;;;;;;;;;4930920;28;20038;-68
2022/07/18 05:40:36;;;;;;;12.48;4.63;;;;;;;;;;4930298;28;20050;-68
2022/07/18 05:43:02;;;;;;;9.93;4.55;;;;;;;;;;4930878;28;20117;-68
2022/07/18 05:45:30;;;;;;;13.82;4.15;;;;;;;;;;4928704;28;20071;-68
2022/07/18 05:47:55;;;;;;;10.35;4.50;;;;;;;;;;4930579;28;20022;-68
2022/07/18 05:50:21;;;;;;;14.43;5.35;;;;;;;;;;4930278;28;20211;-68
2022/07/18 05:52:47;;;;;;;13.55;5.15;;;;;;;;;;4944377;28;20175;-69
2022/07/18 05:55:12;;;;;;;13.30;5.10;;;;;;;;;;4930755;28;20035;-68
2022/07/18 05:57:37;;;;;;;17.70;6.13;;;;;;;;;;4930887;28;20069;-68
2022/07/18 06:00:05;;;;;;;14.05;5.75;;;;;;;;;;4930588;28;20035;-68
2022/07/18 06:02:32;;;;;;;21.58;6.50;;;;;;;;;;4945674;28;21766;-68
2022/07/18 06:04:58;;;;;;;19.77;6.85;;;;;;;;;;4933596;28;20038;-67
2022/07/18 06:07:23;;;;;;;19.33;6.75;;;;;;;;;;4931373;28;20113;-67
2022/07/18 06:09:48;;;;;;;23.15;8.30;;;;;;;;;;4929473;28;20146;-67
2022/07/18 06:12:15;;;;;;;20.83;8.20;;;;;;;;;;4930369;28;20041;-69
2022/07/18 06:14:40;;;;;;;35.72;12.68;;;;;;;;;;4927702;28;20766;-66
2022/07/18 06:17:07;;;;;;;33.58;12.13;;;;;;;;;;4930025;28;20224;-67
2022/07/18 06:19:33;;;;;;;39.45;13.40;;;;;;;;;;4928512;28;20364;-66
2022/07/18 06:21:59;;;;;;;34.17;12.23;;;;;;;;;;4928443;28;20379;-67
2022/07/18 06:24:24;;;;;;;31.30;10.95;;;;;;;;;;4929338;28;20042;-67
2022/07/18 06:26:50;;;;;;;38.50;12.38;;;;;;;;;;4933298;28;20331;-67
2022/07/18 06:29:15;;;;;;;54.95;15.07;;;;;;;;;;4928144;28;20752;-67
2022/07/18 06:31:41;;;;;;;58.63;15.30;;;;;;;;;;4932963;28;20134;-67
2022/07/18 06:34:06;;;;;;;46.88;15.20;;;;;;;;;;4937035;28;20119;-67
2022/07/18 06:36:34;;;;;;;47.22;15.18;;;;;;;;;;4929547;28;20042;-68
2022/07/18 06:38:59;;;;;;;39.97;12.85;;;;;;;;;;4928117;28;20065;-68
2022/07/18 06:41:25;;;;;;;33.97;11.52;;;;;;;;;;4928802;28;20114;-65
2022/07/18 06:43:50;;;;;;;33.97;10.90;;;;;;;;;;4929157;28;20027;-70
2022/07/18 06:46:17;;;;;;;39.92;11.07;;;;;;;;;;4934379;28;20042;-72
2022/07/18 06:48:42;;;;;;;33.97;11.15;;;;;;;;;;4933928;28;20782;-68
2022/07/18 06:51:08;;;;;;;39.33;12.02;;;;;;;;;;4931255;28;20038;-69
2022/07/18 06:53:34;;;;;;;27.33;9.75;;;;;;;;;;4929998;28;20106;-69
2022/07/18 06:56:02;;;;;;;33.40;10.77;;;;;;;;;;4929525;28;20089;-70
2022/07/18 06:58:30;;;;;;;37.08;12.90;;;;;;;;;;4942593;28;20200;-70
2022/07/18 07:00:55;;;;;;;37.53;11.45;;;;;;;;;;4928805;28;20710;-69
2022/07/18 07:03:21;;;;;;;38.40;11.05;;;;;;;;;;4930110;28;20037;-70
2022/07/18 07:05:46;;;;;;;33.97;11.25;;;;;;;;;;4929238;28;20034;-70
2022/07/18 07:08:12;;;;;;;29.67;9.95;;;;;;;;;;4932853;28;20050;-69
2022/07/18 07:10:41;;;;;;;29.25;9.48;;;;;;;;;;4941086;28;20709;-69
2022/07/18 07:13:06;;;;;;;30.13;8.88;;;;;;;;;;4928416;28;20351;-69
2022/07/18 07:15:32;;;;;;;29.73;10.40;;;;;;;;;;4928751;28;20082;-69
2022/07/18 07:17:57;;;;;;;27.73;9.27;;;;;;;;;;4928928;28;20301;-70
2022/07/18 07:20:22;;;;;;;24.08;7.97;;;;;;;;;;4928587;28;20093;-70
2022/07/18 07:22:52;;;;;;;20.98;7.75;;;;;;;;;;4929283;28;20348;-70
2022/07/18 07:25:18;;;;;;;23.25;8.38;;;;;;;;;;4928846;28;20749;-70
2022/07/18 07:27:47;;;;;;;25.08;8.73;;;;;;;;;;4927618;28;20076;-70
2022/07/18 07:30:13;;;;;;;18.40;8.18;;;;;;;;;;4929776;28;21339;-69
2022/07/18 07:32:39;;;;;;;19.02;8.13;;;;;;;;;;4928040;28;20117;-70
2022/07/18 07:35:06;;;;;;;20.48;7.13;;;;;;;;;;4932241;28;20555;-68
2022/07/18 07:37:35;;;;;;;20.60;8.40;;;;;;;;;;4945266;28;20459;-69
2022/07/18 07:40:03;;;;;;;24.52;8.23;;;;;;;;;;4922265;28;20035;-69
2022/07/18 07:42:31;;;;;;;25.65;8.85;;;;;;;;;;4946765;28;20505;-68
2022/07/18 07:44:56;;;;;;;21.80;8.30;;;;;;;;;;4931377;28;20050;-69
2022/07/18 07:47:22;;;;;;;24.35;7.50;;;;;;;;;;4937487;28;21004;-69
2022/07/18 07:49:47;;;;;;;25.20;8.45;;;;;;;;;;4930995;28;20047;-68
2022/07/18 07:52:13;;;;;;;23.65;6.78;;;;;;;;;;4932181;28;20695;-68
2022/07/18 07:54:41;;;;;;;19.15;6.13;;;;;;;;;;4934643;28;20286;-69
2022/07/18 07:57:09;;;;;;;18.40;6.10;;;;;;;;;;4931860;28;21287;-70
2022/07/18 07:59:35;;;;;;;19.33;6.45;;;;;;;;;;4932326;28;20049;-69
2022/07/18 08:02:00;;;;;;;22.30;7.13;;;;;;;;;;4931074;28;20035;-69
2022/07/18 08:04:25;;;;;;;18.40;6.30;;;;;;;;;;4931847;28;21218;-70
2022/07/18 08:06:51;;;;;;;16.08;6.28;;;;;;;;;;4930964;28;20043;-69
2022/07/18 08:09:16;;;;;;;13.45;5.25;;;;;;;;;;4930973;28;20069;-70
2022/07/18 08:11:44;;;;;;;20.65;7.60;;;;;;;;;;4931786;28;22707;-70
2022/07/18 08:14:09;;;;;;;17.20;5.93;;;;;;;;;;4932417;28;20039;-68
2022/07/18 08:16:35;;;;;;;17.38;5.78;;;;;;;;;;4948693;28;20118;-71
2022/07/18 08:19:00;;;;;;;14.52;5.47;;;;;;;;;;4933736;28;20049;-70
2022/07/18 08:21:25;;;;;;;12.52;4.97;;;;;;;;;;4932954;28;20558;-71
2022/07/18 08:23:50;;;;;;;10.57;4.00;;;;;;;;;;4932263;28;20046;-71
2022/07/18 08:26:18;;;;;;;10.85;3.80;;;;;;;;;;4932846;28;20041;-70
2022/07/18 08:28:44;;;;;;;8.00;3.17;;;;;;;;;;4934814;28;20108;-72
2022/07/18 08:31:12;;;;;;;6.40;2.72;;;;;;;;;;4929246;28;20081;-72
2022/07/18 08:33:40;;;;;;;9.13;3.10;;;;;;;;;;4946603;28;20038;-69
2022/07/18 08:36:05;;;;;;;8.50;3.13;;;;;;;;;;4932006;28;20739;-71
2022/07/18 08:38:31;;;;;;;16.98;3.15;;;;;;;;;;4933036;28;20034;-70
2022/07/18 08:40:59;;;;;;;11.05;3.22;;;;;;;;;;4933230;28;20042;-70
2022/07/18 08:43:25;;;;;;;8.13;3.10;;;;;;;;;;4934054;28;20210;-70
2022/07/18 08:45:58;;;;;;;8.77;3.33;;;;;;;;;;4930228;28;21201;-69
2022/07/18 08:48:41;;;;;;;6.97;2.97;;;;;;;;;;4926180;28;20865;-69
2022/07/18 08:51:11;;;;;;;7.53;2.92;;;;;;;;;;4920426;28;20045;-71
2022/07/18 08:53:39;;;;;;;9.77;4.10;;;;;;;;;;4920606;28;20073;-69
2022/07/18 08:56:05;;;;;;;12.27;3.88;;;;;;;;;;4919240;28;20138;-69
2022/07/18 08:58:30;;;;;;;12.35;5.00;;;;;;;;;;4905778;28;20089;-66
2022/07/18 09:00:58;;;;;;;9.48;3.42;;;;;;;;;;4920692;28;20074;-73
2022/07/18 09:03:23;;;;;;;9.05;3.70;;;;;;;;;;4905325;28;20031;-70
2022/07/18 09:06:01;;;;;;;17.35;6.03;;;;;;;;;;4918334;28;20053;-72
2022/07/18 09:08:29;;;;;;;20.35;7.88;;;;;;;;;;4917635;28;20295;-72
2022/07/18 09:10:58;;;;;;;15.02;5.45;;;;;;;;;;4899154;28;20480;-72
2022/07/18 09:13:43;;;;;;;11.40;3.70;;;;;;;;;;4919682;28;20697;-71
2022/07/18 09:16:13;;;;;;;7.15;2.70;;;;;;;;;;4917786;28;20042;-73
2022/07/18 09:18:44;;;;;;;8.70;3.10;;;;;;;;;;4915832;28;20140;-70
2022/07/18 09:21:11;;;;;;;6.78;3.30;;;;;;;;;;4929109;28;20034;-71
2022/07/18 09:23:38;;;;;;;8.68;2.45;;;;;;;;;;4930169;28;20061;-71
2022/07/18 09:26:03;;;;;;;5.40;2.40;;;;;;;;;;4929600;28;20142;-70
2022/07/18 09:28:45;;;;;;;5.45;1.90;;;;;;;;;;4931671;28;20153;-70
2022/07/18 09:31:20;;;;;;;10.57;2.22;;;;;;;;;;4930908;28;20050;-70
2022/07/18 09:33:55;;;;;;;6.90;2.33;;;;;;;;;;4930057;28;20042;-70
2022/07/18 09:36:21;;;;;;;8.07;1.90;;;;;;;;;;4945256;28;20030;-70
2022/07/18 09:38:47;;;;;;;6.32;2.45;;;;;;;;;;4931161;28;20489;-70
2022/07/18 09:41:13;;;;;;;7.40;2.17;;;;;;;;;;4931478;28;20877;-69
2022/07/18 09:43:38;;;;;;;6.35;2.28;;;;;;;;;;4931471;28;20035;-69
2022/07/18 09:46:09;;;;;;;9.55;2.70;;;;;;;;;;4945029;28;20041;-69
2022/07/18 09:48:34;;;;;;;5.20;2.28;;;;;;;;;;4935710;28;20046;-71
2022/07/18 09:50:59;;;;;;;7.88;2.10;;;;;;;;;;4931511;28;20054;-69
2022/07/18 09:53:32;;;;;;;8.10;2.58;;;;;;;;;;4944305;28;20101;-69
2022/07/18 09:55:58;;;;;;;8.20;2.53;;;;;;;;;;4917206;28;20031;-69
2022/07/18 09:58:30;;;;;;;6.18;2.50;;;;;;;;;;4944574;28;20622;-69
2022/07/18 10:00:57;;;;;;;8.70;2.00;;;;;;;;;;4929910;28;20088;-70
2022/07/18 10:03:22;;;;;;;6.03;2.60;;;;;;;;;;4931147;28;20045;-69
2022/07/18 10:05:51;;;;;;;8.70;2.40;;;;;;;;;;4930437;28;20034;-68
2022/07/18 10:08:17;;;;;;;10.75;2.55;;;;;;;;;;4943815;28;20121;-67
2022/07/18 10:10:44;;;;;;;8.45;2.60;;;;;;;;;;4930657;28;20156;-68
2022/07/18 10:13:09;;;;;;;9.00;2.35;;;;;;;;;;4931212;28;20227;-69
2022/07/18 10:15:39;;;;;;;7.50;2.42;;;;;;;;;;4944637;28;20559;-69
2022/07/18 10:18:08;;;;;;;8.45;2.38;;;;;;;;;;4930970;28;20097;-71
2022/07/18 10:20:38;;;;;;;8.90;2.75;;;;;;;;;;4928037;28;20031;-71
2022/07/18 10:23:09;;;;;;;7.75;2.45;;;;;;;;;;4945634;28;20026;-70
2022/07/18 10:25:35;;;;;;;5.20;2.20;;;;;;;;;;4931258;28;20807;-69
2022/07/18 10:28:04;;;;;;;6.50;2.42;;;;;;;;;;4931104;28;20558;-70
2022/07/18 10:30:34;;;;;;;7.05;2.90;;;;;;;;;;4931268;28;20116;-68
2022/07/18 10:33:03;;;;;;;6.60;2.55;;;;;;;;;;4930090;28;20782;-70
2022/07/18 10:35:58;;;;;;;8.63;2.67;;;;;;;;;;4928809;28;20097;-71
2022/07/18 10:38:23;;;;;;;7.95;2.60;;;;;;;;;;4929608;28;20038;-69
2022/07/18 10:41:02;;;;;;;9.73;2.97;;;;;;;;;;4929436;28;20113;-71
2022/07/18 10:43:29;;;;;;;6.60;2.72;;;;;;;;;;4930758;28;20096;-67
2022/07/18 10:45:56;;;;;;;9.85;3.00;;;;;;;;;;4929257;28;20737;-68
2022/07/18 10:48:45;;;;;;;7.65;2.92;;;;;;;;;;4931973;28;20662;-69
2022/07/18 10:51:15;;;;;;;9.82;3.25;;;;;;;;;;4919590;28;20031;-70
2022/07/18 10:54:07;;;;;;;6.78;3.08;;;;;;;;;;4930187;28;20912;-68
2022/07/18 10:56:35;;;;;;;6.55;2.95;;;;;;;;;;4930360;28;21024;-72
2022/07/18 10:59:14;;;;;;;8.60;3.20;;;;;;;;;;4930868;28;20819;-69
2022/07/18 11:01:47;;;;;;;7.85;3.00;;;;;;;;;;4930592;28;20057;-71
2022/07/18 11:04:31;;;;;;;7.70;2.92;;;;;;;;;;4937229;28;20616;-68
2022/07/18 11:07:05;;;;;;;6.53;3.42;;;;;;;;;;4930544;28;20118;-69
2022/07/18 11:09:36;;;;;;;7.97;3.13;;;;;;;;;;4934176;28;20043;-68
2022/07/18 11:12:21;;;;;;;6.65;3.25;;;;;;;;;;4934199;28;20061;-68
2022/07/18 11:15:00;;;;;;;6.90;3.05;;;;;;;;;;4934072;28;21022;-68
2022/07/18 11:17:44;;;;;;;6.85;3.15;;;;;;;;;;4932933;28;20035;-70
2022/07/18 11:20:28;;;;;;;7.68;2.55;;;;;;;;;;4933826;28;20834;-70
2022/07/18 11:22:54;;;;;;;8.85;2.83;;;;;;;;;;4931391;28;20043;-71
2022/07/18 11:25:19;;;;;;;5.47;2.55;;;;;;;;;;4934240;28;20247;-70
2022/07/18 11:27:45;;;;;;;7.55;3.20;;;;;;;;;;4933723;28;20098;-69
2022/07/18 11:30:18;;;;;;;6.38;2.63;;;;;;;;;;4931688;28;20199;-70
2022/07/18 11:32:43;;;;;;;8.65;3.00;;;;;;;;;;4932363;28;20054;-69
2022/07/18 11:35:09;;;;;;;10.85;3.17;;;;;;;;;;4933053;28;20058;-69
2022/07/18 11:37:38;;;;;;;10.18;3.13;;;;;;;;;;4932216;28;20058;-69
2022/07/18 11:40:04;;;;;;;7.10;2.97;;;;;;;;;;4931288;28;20065;-69
2022/07/18 11:42:39;;;;;;;7.63;3.05;;;;;;;;;;4936046;28;20103;-70
2022/07/18 11:45:06;;;;;;;5.25;2.78;;;;;;;;;;4932133;28;20678;-71
2022/07/18 11:47:37;;;;;;;6.30;2.40;;;;;;;;;;4932773;28;20046;-71
2022/07/18 11:50:02;;;;;;;7.10;2.80;;;;;;;;;;4932697;28;20678;-72
2022/07/18 11:52:27;;;;;;;9.23;2.88;;;;;;;;;;4932597;28;20202;-69
2022/07/18 11:54:52;;;;;;;7.00;3.60;;;;;;;;;;4933138;28;20142;-70
2022/07/18 11:57:28;;;;;;;6.43;3.40;;;;;;;;;;4931947;28;20035;-70
2022/07/18 11:59:53;;;;;;;6.93;3.20;;;;;;;;;;4932994;28;20043;-70
2022/07/18 12:02:42;;;;;;;9.13;3.47;;;;;;;;;;4931389;28;20484;-67
2022/07/18 12:05:12;;;;;;;6.95;3.60;;;;;;;;;;4932756;28;20617;-70
2022/07/18 12:07:37;;;;;;;7.75;3.15;;;;;;;;;;4932873;28;20027;-69
2022/07/18 12:10:17;;;;;;;9.77;3.42;;;;;;;;;;4930288;28;20586;-70
2022/07/18 12:12:43;;;;;;;9.48;3.33;;;;;;;;;;4932414;28;20047;-70
2022/07/18 12:15:09;;;;;;;8.75;3.60;;;;;;;;;;4930870;28;20560;-68
2022/07/18 12:17:43;;;;;;;6.70;3.20;;;;;;;;;;4931370;28;20705;-70
2022/07/18 12:20:12;;;;;;;6.78;2.60;;;;;;;;;;4933102;28;20219;-70
2022/07/18 12:23:00;;;;;;;8.68;3.40;;;;;;;;;;4932441;28;20043;-71
2022/07/18 12:25:41;;;;;;;8.50;3.25;;;;;;;;;;4931549;28;20046;-70
2022/07/18 12:28:16;;;;;;;7.50;3.20;;;;;;;;;;4932149;28;20436;-71
2022/07/18 12:30:42;;;;;;;7.35;2.50;;;;;;;;;;4932447;28;20042;-70
2022/07/18 12:33:11;;;;;;;6.75;2.97;;;;;;;;;;4934100;28;20125;-70
2022/07/18 12:35:42;;;;;;;8.07;2.40;;;;;;;;;;4945978;28;20711;-70
2022/07/18 12:38:07;;;;;;;5.38;2.60;;;;;;;;;;4932650;28;21835;-70
2022/07/18 12:40:46;;;;;;;7.43;3.05;;;;;;;;;;4933675;28;20031;-71
2022/07/18 12:43:13;;;;;;;9.27;2.67;;;;;;;;;;4932259;28;20089;-70
2022/07/18 12:45:39;;;;;;;7.55;2.25;;;;;;;;;;4932819;28;20077;-71
2022/07/18 12:48:09;;;;;;;7.53;2.90;;;;;;;;;;4932706;28;20815;-69
2022/07/18 12:50:39;;;;;;;9.13;2.88;;;;;;;;;;4932589;28;20570;-71
2022/07/18 12:53:07;;;;;;;6.35;2.30;;;;;;;;;;4933162;28;20037;-70
2022/07/18 12:55:32;;;;;;;8.88;2.83;;;;;;;;;;4933375;28;20038;-71
2022/07/18 12:57:59;;;;;;;5.90;2.17;;;;;;;;;;4930648;28;20069;-70
2022/07/18 13:00:24;;;;;;;5.32;2.10;;;;;;;;;;4932123;28;20037;-69
2022/07/18 13:02:55;;;;;;;3.90;2.20;;;;;;;;;;4932647;28;20022;-70
2022/07/18 13:05:26;;;;;;;4.53;2.25;;;;;;;;;;4931531;28;20034;-71
2022/07/18 13:07:54;;;;;;;5.53;2.30;;;;;;;;;;4932192;28;20694;-72
2022/07/18 13:10:20;;;;;;;7.40;2.22;;;;;;;;;;4929674;28;21135;-70
2022/07/18 13:12:46;;;;;;;6.05;2.53;;;;;;;;;;4946411;28;20852;-71
2022/07/18 13:15:11;;;;;;;4.78;1.98;;;;;;;;;;4929934;28;20031;-70
2022/07/18 13:17:36;;;;;;;3.83;1.92;;;;;;;;;;4935464;28;20974;-72
2022/07/18 13:20:02;;;;;;;5.47;1.88;;;;;;;;;;4930850;28;20101;-69
2022/07/18 13:22:37;;;;;;;7.18;2.15;;;;;;;;;;4930151;28;20038;-71
2022/07/18 13:25:03;;;;;;;5.20;2.13;;;;;;;;;;4931067;28;20067;-71
2022/07/18 13:27:28;;;;;;;8.18;2.10;;;;;;;;;;4936250;28;20799;-68
2022/07/18 13:29:54;;;;;;;74.10;5.55;;;;;;;;;;4931394;28;20047;-71
2022/07/18 13:32:19;;;;;;;4.32;1.92;;;;;;;;;;4936709;28;20046;-72
2022/07/18 13:34:47;;;;;;;6.05;1.77;;;;;;;;;;4930899;28;20949;-71
2022/07/18 13:37:14;;;;;;;6.78;1.80;;;;;;;;;;4930874;28;20070;-72
2022/07/18 13:39:40;;;;;;;5.60;2.20;;;;;;;;;;4930970;28;20043;-71
2022/07/18 13:42:05;;;;;;;3.92;1.70;;;;;;;;;;4931028;28;20127;-71
2022/07/18 13:44:31;;;;;;;5.30;1.70;;;;;;;;;;4931890;28;20066;-68
2022/07/18 13:46:56;;;;;;;7.30;2.22;;;;;;;;;;4930211;28;20042;-70
2022/07/18 13:49:24;;;;;;;7.13;2.20;;;;;;;;;;4943276;28;20085;-70
2022/07/18 13:51:49;;;;;;;4.38;2.10;;;;;;;;;;4930140;28;20051;-70
2022/07/18 13:54:16;;;;;;;5.38;2.00;;;;;;;;;;4944989;28;20363;-71
2022/07/18 13:56:46;;;;;;;5.60;2.00;;;;;;;;;;4929803;28;20027;-71
2022/07/18 13:59:12;;;;;;;3.58;1.80;;;;;;;;;;4930700;28;20654;-69
2022/07/18 14:01:38;;;;;;;4.72;2.33;;;;;;;;;;4929264;28;20073;-70
2022/07/18 14:04:04;;;;;;;5.05;1.95;;;;;;;;;;4930750;28;20089;-70
2022/07/18 14:06:31;;;;;;;5.43;1.70;;;;;;;;;;4930355;28;20141;-69
2022/07/18 14:08:59;;;;;;;9.85;1.98;;;;;;;;;;4928521;28;20053;-69
2022/07/18 14:11:24;;;;;;;4.35;1.75;;;;;;;;;;4930685;28;20062;-70
2022/07/18 14:13:49;;;;;;;7.22;1.98;;;;;;;;;;4930704;28;22012;-71
2022/07/18 14:16:15;;;;;;;4.78;1.77;;;;;;;;;;4931233;28;20039;-71
2022/07/18 14:18:43;;;;;;;4.68;1.75;;;;;;;;;;4930601;28;20055;-71
2022/07/18 14:21:08;;;;;;;4.13;1.80;;;;;;;;;;4928853;28;20956;-70
2022/07/18 14:23:33;;;;;;;6.82;1.63;;;;;;;;;;4944999;28;20037;-70
2022/07/18 14:25:58;;;;;;;8.07;1.77;;;;;;;;;;4930849;28;20046;-70
2022/07/18 14:28:24;;;;;;;4.63;1.70;;;;;;;;;;4930353;28;20101;-71
2022/07/18 14:30:49;;;;;;;2.93;1.50;;;;;;;;;;4930063;28;20190;-70
2022/07/18 14:33:15;;;;;;;4.10;1.70;;;;;;;;;;4930467;28;20279;-70
2022/07/18 14:35:41;;;;;;;5.90;1.80;;;;;;;;;;4944287;28;20143;-71
2022/07/18 14:38:06;;;;;;;4.20;1.88;;;;;;;;;;4938935;28;20089;-70